sensor_id;sensor_type;location;lat;lon;timestamp;P1;durP1;ratioP1;P2;durP2;ratioP2
19221;SDS011;9745;50.828;4.378;2023-08-08T00:02:21;7.27;;;2.70;;
19221;SDS011;9745;50.828;4.378;2023-08-08T00:04:48;5.47;;;2.40;;
19221;SDS011;9745;50.828;4.378;2023-08-08T00:07:15;6.10;;;2.70;;
19221;SDS011;9745;50.828;4.378;2023-08-08T00:09:41;5.93;;;2.30;;
19221;SDS011;9745;50.828;4.378;2023-08-08T00:12:07;4.87;;;2.50;;
19221;SDS011;9745;50.828;4.378;2023-08-08T00:14:33;7.43;;;3.13;;
19221;SDS011;9745;50.828;4.378;2023-08-08T00:16:59;6.57;;;1.93;;
19221;SDS011;9745;50.828;4.378;2023-08-08T00:19:25;3.73;;;2.30;;
19221;SDS011;9745;50.828;4.378;2023-08-08T00:21:51;8.60;;;2.93;;
19221;SDS011;9745;50.828;4.378;2023-08-08T00:24:17;4.43;;;2.27;;
19221;SDS011;9745;50.828;4.378;2023-08-08T00:26:43;8.67;;;2.87;;
19221;SDS011;9745;50.828;4.378;2023-08-08T00:29:09;9.80;;;2.63;;
19221;SDS011;9745;50.828;4.378;2023-08-08T00:31:35;6.10;;;2.30;;
19221;SDS011;9745;50.828;4.378;2023-08-08T00:34:01;8.97;;;2.97;;
19221;SDS011;9745;50.828;4.378;2023-08-08T00:36:28;16.43;;;3.27;;
19221;SDS011;9745;50.828;4.378;2023-08-08T00:38:54;6.60;;;2.83;;
19221;SDS011;9745;50.828;4.378;2023-08-08T00:41:20;7.80;;;2.80;;
19221;SDS011;9745;50.828;4.378;2023-08-08T00:43:47;8.47;;;3.13;;
19221;SDS011;9745;50.828;4.378;2023-08-08T00:46:13;4.80;;;2.77;;
19221;SDS011;9745;50.828;4.378;2023-08-08T00:48:39;8.17;;;2.80;;
19221;SDS011;9745;50.828;4.378;2023-08-08T00:51:05;10.03;;;2.73;;
19221;SDS011;9745;50.828;4.378;2023-08-08T00:53:31;8.47;;;3.10;;
19221;SDS011;9745;50.828;4.378;2023-08-08T00:55:58;7.57;;;2.60;;
19221;SDS011;9745;50.828;4.378;2023-08-08T00:58:24;5.77;;;2.90;;
19221;SDS011;9745;50.828;4.378;2023-08-08T01:00:51;9.73;;;3.53;;
19221;SDS011;9745;50.828;4.378;2023-08-08T01:03:19;7.90;;;2.90;;
19221;SDS011;9745;50.828;4.378;2023-08-08T01:05:51;11.23;;;3.47;;
19221;SDS011;9745;50.828;4.378;2023-08-08T01:08:21;10.13;;;3.10;;
19221;SDS011;9745;50.828;4.378;2023-08-08T01:10:48;8.80;;;3.10;;
19221;SDS011;9745;50.828;4.378;2023-08-08T01:13:16;7.50;;;3.53;;
19221;SDS011;9745;50.828;4.378;2023-08-08T01:15:42;9.97;;;3.53;;
19221;SDS011;9745;50.828;4.378;2023-08-08T01:18:09;11.47;;;4.30;;
19221;SDS011;9745;50.828;4.378;2023-08-08T01:20:35;8.80;;;3.50;;
19221;SDS011;9745;50.828;4.378;2023-08-08T01:23:09;8.83;;;3.60;;
19221;SDS011;9745;50.828;4.378;2023-08-08T01:25:37;7.10;;;3.07;;
19221;SDS011;9745;50.828;4.378;2023-08-08T01:28:04;8.67;;;3.57;;
19221;SDS011;9745;50.828;4.378;2023-08-08T01:30:30;6.63;;;3.43;;
19221;SDS011;9745;50.828;4.378;2023-08-08T01:32:56;9.23;;;3.37;;
19221;SDS011;9745;50.828;4.378;2023-08-08T01:35:22;10.07;;;4.03;;
19221;SDS011;9745;50.828;4.378;2023-08-08T01:37:53;9.70;;;3.70;;
19221;SDS011;9745;50.828;4.378;2023-08-08T01:40:20;12.40;;;3.70;;
19221;SDS011;9745;50.828;4.378;2023-08-08T01:42:46;11.10;;;3.37;;
19221;SDS011;9745;50.828;4.378;2023-08-08T01:45:13;13.80;;;4.20;;
19221;SDS011;9745;50.828;4.378;2023-08-08T01:47:40;10.07;;;3.73;;
19221;SDS011;9745;50.828;4.378;2023-08-08T01:50:06;7.73;;;3.93;;
19221;SDS011;9745;50.828;4.378;2023-08-08T01:52:34;11.70;;;3.37;;
19221;SDS011;9745;50.828;4.378;2023-08-08T01:55:00;6.10;;;3.50;;
19221;SDS011;9745;50.828;4.378;2023-08-08T01:57:26;10.20;;;3.50;;
19221;SDS011;9745;50.828;4.378;2023-08-08T01:59:52;8.17;;;3.10;;
19221;SDS011;9745;50.828;4.378;2023-08-08T02:02:18;14.03;;;3.90;;
19221;SDS011;9745;50.828;4.378;2023-08-08T02:04:44;12.07;;;3.07;;
19221;SDS011;9745;50.828;4.378;2023-08-08T02:07:10;11.63;;;3.50;;
19221;SDS011;9745;50.828;4.378;2023-08-08T02:09:36;7.13;;;3.93;;
19221;SDS011;9745;50.828;4.378;2023-08-08T02:12:02;8.40;;;3.67;;
19221;SDS011;9745;50.828;4.378;2023-08-08T02:14:28;8.13;;;4.00;;
19221;SDS011;9745;50.828;4.378;2023-08-08T02:16:54;17.27;;;3.70;;
19221;SDS011;9745;50.828;4.378;2023-08-08T02:19:20;9.70;;;3.50;;
19221;SDS011;9745;50.828;4.378;2023-08-08T02:21:46;10.97;;;3.63;;
19221;SDS011;9745;50.828;4.378;2023-08-08T02:24:12;13.73;;;3.63;;
19221;SDS011;9745;50.828;4.378;2023-08-08T02:26:38;14.30;;;6.00;;
19221;SDS011;9745;50.828;4.378;2023-08-08T02:29:04;20.10;;;10.30;;
19221;SDS011;9745;50.828;4.378;2023-08-08T02:31:30;30.97;;;23.07;;
19221;SDS011;9745;50.828;4.378;2023-08-08T02:33:56;41.87;;;32.50;;
19221;SDS011;9745;50.828;4.378;2023-08-08T02:36:22;46.87;;;34.27;;
19221;SDS011;9745;50.828;4.378;2023-08-08T02:38:48;56.50;;;30.13;;
19221;SDS011;9745;50.828;4.378;2023-08-08T02:41:18;43.87;;;24.37;;
19221;SDS011;9745;50.828;4.378;2023-08-08T02:43:44;37.40;;;15.70;;
19221;SDS011;9745;50.828;4.378;2023-08-08T02:46:10;25.87;;;10.17;;
19221;SDS011;9745;50.828;4.378;2023-08-08T02:48:36;17.23;;;7.13;;
19221;SDS011;9745;50.828;4.378;2023-08-08T02:51:02;11.27;;;5.53;;
19221;SDS011;9745;50.828;4.378;2023-08-08T02:53:28;10.90;;;4.10;;
19221;SDS011;9745;50.828;4.378;2023-08-08T02:55:54;10.80;;;4.53;;
19221;SDS011;9745;50.828;4.378;2023-08-08T02:58:20;16.07;;;4.03;;
19221;SDS011;9745;50.828;4.378;2023-08-08T03:00:46;12.03;;;4.60;;
19221;SDS011;9745;50.828;4.378;2023-08-08T03:03:12;8.07;;;4.07;;
19221;SDS011;9745;50.828;4.378;2023-08-08T03:05:39;15.80;;;4.90;;
19221;SDS011;9745;50.828;4.378;2023-08-08T03:08:05;8.13;;;4.43;;
19221;SDS011;9745;50.828;4.378;2023-08-08T03:10:31;14.90;;;4.40;;
19221;SDS011;9745;50.828;4.378;2023-08-08T03:12:57;22.07;;;4.77;;
19221;SDS011;9745;50.828;4.378;2023-08-08T03:15:23;13.67;;;4.07;;
19221;SDS011;9745;50.828;4.378;2023-08-08T03:17:49;9.00;;;3.93;;
19221;SDS011;9745;50.828;4.378;2023-08-08T03:20:15;11.00;;;4.37;;
19221;SDS011;9745;50.828;4.378;2023-08-08T03:22:41;13.93;;;4.43;;
19221;SDS011;9745;50.828;4.378;2023-08-08T03:25:08;11.67;;;4.70;;
19221;SDS011;9745;50.828;4.378;2023-08-08T03:27:34;10.90;;;4.50;;
19221;SDS011;9745;50.828;4.378;2023-08-08T03:30:00;10.37;;;4.93;;
19221;SDS011;9745;50.828;4.378;2023-08-08T03:32:27;11.47;;;4.70;;
19221;SDS011;9745;50.828;4.378;2023-08-08T03:34:53;12.33;;;4.63;;
19221;SDS011;9745;50.828;4.378;2023-08-08T03:37:20;15.77;;;4.93;;
19221;SDS011;9745;50.828;4.378;2023-08-08T03:39:46;13.67;;;4.93;;
19221;SDS011;9745;50.828;4.378;2023-08-08T03:42:12;19.47;;;6.00;;
19221;SDS011;9745;50.828;4.378;2023-08-08T03:44:38;13.90;;;4.73;;
19221;SDS011;9745;50.828;4.378;2023-08-08T03:47:04;12.67;;;5.70;;
19221;SDS011;9745;50.828;4.378;2023-08-08T03:49:31;13.13;;;4.60;;
19221;SDS011;9745;50.828;4.378;2023-08-08T03:51:57;14.87;;;4.73;;
19221;SDS011;9745;50.828;4.378;2023-08-08T03:54:23;13.93;;;4.90;;
19221;SDS011;9745;50.828;4.378;2023-08-08T03:56:49;17.43;;;6.07;;
19221;SDS011;9745;50.828;4.378;2023-08-08T03:59:15;14.87;;;4.80;;
19221;SDS011;9745;50.828;4.378;2023-08-08T04:01:41;12.30;;;4.83;;
19221;SDS011;9745;50.828;4.378;2023-08-08T04:04:07;20.17;;;5.20;;
19221;SDS011;9745;50.828;4.378;2023-08-08T04:06:33;13.17;;;4.20;;
19221;SDS011;9745;50.828;4.378;2023-08-08T04:08:59;23.00;;;5.13;;
19221;SDS011;9745;50.828;4.378;2023-08-08T04:11:26;18.13;;;4.57;;
19221;SDS011;9745;50.828;4.378;2023-08-08T04:13:52;15.93;;;5.40;;
19221;SDS011;9745;50.828;4.378;2023-08-08T04:16:18;18.73;;;6.17;;
19221;SDS011;9745;50.828;4.378;2023-08-08T04:18:44;17.57;;;6.23;;
19221;SDS011;9745;50.828;4.378;2023-08-08T04:21:10;19.43;;;5.87;;
19221;SDS011;9745;50.828;4.378;2023-08-08T04:23:36;16.33;;;5.40;;
19221;SDS011;9745;50.828;4.378;2023-08-08T04:26:02;13.67;;;4.57;;
19221;SDS011;9745;50.828;4.378;2023-08-08T04:28:28;16.50;;;5.50;;
19221;SDS011;9745;50.828;4.378;2023-08-08T04:30:54;16.80;;;4.90;;
19221;SDS011;9745;50.828;4.378;2023-08-08T04:33:20;15.43;;;4.60;;
19221;SDS011;9745;50.828;4.378;2023-08-08T04:35:46;17.47;;;5.00;;
19221;SDS011;9745;50.828;4.378;2023-08-08T04:38:13;13.40;;;4.60;;
19221;SDS011;9745;50.828;4.378;2023-08-08T04:40:40;18.67;;;4.80;;
19221;SDS011;9745;50.828;4.378;2023-08-08T04:43:06;15.80;;;5.10;;
19221;SDS011;9745;50.828;4.378;2023-08-08T04:45:32;15.83;;;4.93;;
19221;SDS011;9745;50.828;4.378;2023-08-08T04:47:58;14.33;;;4.50;;
19221;SDS011;9745;50.828;4.378;2023-08-08T04:50:24;11.03;;;4.40;;
19221;SDS011;9745;50.828;4.378;2023-08-08T04:52:50;14.00;;;4.20;;
19221;SDS011;9745;50.828;4.378;2023-08-08T04:55:16;15.17;;;4.83;;
19221;SDS011;9745;50.828;4.378;2023-08-08T04:57:42;18.37;;;5.23;;
19221;SDS011;9745;50.828;4.378;2023-08-08T05:00:09;14.97;;;4.57;;
19221;SDS011;9745;50.828;4.378;2023-08-08T05:02:35;12.40;;;4.80;;
19221;SDS011;9745;50.828;4.378;2023-08-08T05:05:01;15.70;;;5.60;;
19221;SDS011;9745;50.828;4.378;2023-08-08T05:07:27;17.93;;;4.97;;
19221;SDS011;9745;50.828;4.378;2023-08-08T05:09:53;14.33;;;4.40;;
19221;SDS011;9745;50.828;4.378;2023-08-08T05:12:19;15.97;;;5.53;;
19221;SDS011;9745;50.828;4.378;2023-08-08T05:14:45;9.40;;;3.40;;
19221;SDS011;9745;50.828;4.378;2023-08-08T05:17:11;13.97;;;4.13;;
19221;SDS011;9745;50.828;4.378;2023-08-08T05:19:37;10.83;;;4.33;;
19221;SDS011;9745;50.828;4.378;2023-08-08T05:22:03;14.53;;;4.50;;
19221;SDS011;9745;50.828;4.378;2023-08-08T05:24:30;18.40;;;4.37;;
19221;SDS011;9745;50.828;4.378;2023-08-08T05:26:56;16.27;;;4.73;;
19221;SDS011;9745;50.828;4.378;2023-08-08T05:29:22;13.13;;;4.40;;
19221;SDS011;9745;50.828;4.378;2023-08-08T05:31:48;12.27;;;3.97;;
19221;SDS011;9745;50.828;4.378;2023-08-08T05:34:14;11.50;;;4.10;;
19221;SDS011;9745;50.828;4.378;2023-08-08T05:36:40;13.40;;;3.97;;
19221;SDS011;9745;50.828;4.378;2023-08-08T05:39:07;14.13;;;4.20;;
19221;SDS011;9745;50.828;4.378;2023-08-08T05:41:34;15.47;;;4.23;;
19221;SDS011;9745;50.828;4.378;2023-08-08T05:44:00;20.93;;;4.50;;
19221;SDS011;9745;50.828;4.378;2023-08-08T05:46:26;13.07;;;4.03;;
19221;SDS011;9745;50.828;4.378;2023-08-08T05:48:52;9.57;;;3.57;;
19221;SDS011;9745;50.828;4.378;2023-08-08T05:51:18;13.20;;;3.67;;
19221;SDS011;9745;50.828;4.378;2023-08-08T05:53:44;13.30;;;3.40;;
19221;SDS011;9745;50.828;4.378;2023-08-08T05:56:11;14.03;;;3.70;;
19221;SDS011;9745;50.828;4.378;2023-08-08T05:58:37;12.13;;;3.30;;
19221;SDS011;9745;50.828;4.378;2023-08-08T06:01:03;15.17;;;3.63;;
19221;SDS011;9745;50.828;4.378;2023-08-08T06:03:34;12.70;;;3.97;;
19221;SDS011;9745;50.828;4.378;2023-08-08T06:06:02;10.80;;;3.50;;
19221;SDS011;9745;50.828;4.378;2023-08-08T06:08:28;10.50;;;2.90;;
19221;SDS011;9745;50.828;4.378;2023-08-08T06:10:54;15.27;;;3.17;;
19221;SDS011;9745;50.828;4.378;2023-08-08T06:13:20;14.77;;;3.77;;
19221;SDS011;9745;50.828;4.378;2023-08-08T06:15:46;15.90;;;4.20;;
19221;SDS011;9745;50.828;4.378;2023-08-08T06:18:12;12.93;;;3.00;;
19221;SDS011;9745;50.828;4.378;2023-08-08T06:20:38;12.10;;;3.33;;
19221;SDS011;9745;50.828;4.378;2023-08-08T06:23:04;9.63;;;3.03;;
19221;SDS011;9745;50.828;4.378;2023-08-08T06:25:31;6.33;;;2.63;;
19221;SDS011;9745;50.828;4.378;2023-08-08T06:27:57;7.97;;;2.70;;
19221;SDS011;9745;50.828;4.378;2023-08-08T06:30:23;9.83;;;3.00;;
19221;SDS011;9745;50.828;4.378;2023-08-08T06:32:49;13.40;;;2.77;;
19221;SDS011;9745;50.828;4.378;2023-08-08T06:35:15;9.67;;;2.50;;
19221;SDS011;9745;50.828;4.378;2023-08-08T06:37:41;14.93;;;3.00;;
19221;SDS011;9745;50.828;4.378;2023-08-08T06:40:08;11.83;;;2.80;;
19221;SDS011;9745;50.828;4.378;2023-08-08T06:42:35;9.00;;;2.57;;
19221;SDS011;9745;50.828;4.378;2023-08-08T06:45:01;9.90;;;2.83;;
19221;SDS011;9745;50.828;4.378;2023-08-08T06:47:27;12.47;;;2.67;;
19221;SDS011;9745;50.828;4.378;2023-08-08T06:49:53;9.07;;;2.67;;
19221;SDS011;9745;50.828;4.378;2023-08-08T06:52:19;12.43;;;3.33;;
19221;SDS011;9745;50.828;4.378;2023-08-08T06:54:45;11.40;;;3.33;;
19221;SDS011;9745;50.828;4.378;2023-08-08T06:57:11;6.47;;;2.20;;
19221;SDS011;9745;50.828;4.378;2023-08-08T06:59:37;10.20;;;2.27;;
19221;SDS011;9745;50.828;4.378;2023-08-08T07:02:03;10.23;;;2.03;;
19221;SDS011;9745;50.828;4.378;2023-08-08T07:04:30;7.13;;;2.07;;
19221;SDS011;9745;50.828;4.378;2023-08-08T07:06:56;14.77;;;3.37;;
19221;SDS011;9745;50.828;4.378;2023-08-08T07:09:22;7.20;;;2.37;;
19221;SDS011;9745;50.828;4.378;2023-08-08T07:11:48;9.53;;;2.33;;
19221;SDS011;9745;50.828;4.378;2023-08-08T07:14:14;9.90;;;2.53;;
19221;SDS011;9745;50.828;4.378;2023-08-08T07:16:40;6.23;;;2.50;;
19221;SDS011;9745;50.828;4.378;2023-08-08T07:19:06;6.93;;;2.40;;
19221;SDS011;9745;50.828;4.378;2023-08-08T07:21:32;5.87;;;1.93;;
19221;SDS011;9745;50.828;4.378;2023-08-08T07:23:58;9.17;;;2.30;;
19221;SDS011;9745;50.828;4.378;2023-08-08T07:26:24;10.53;;;2.50;;
19221;SDS011;9745;50.828;4.378;2023-08-08T07:28:50;6.63;;;2.13;;
19221;SDS011;9745;50.828;4.378;2023-08-08T07:31:18;12.37;;;2.70;;
19221;SDS011;9745;50.828;4.378;2023-08-08T07:33:44;11.47;;;2.70;;
19221;SDS011;9745;50.828;4.378;2023-08-08T07:36:10;9.60;;;2.57;;
19221;SDS011;9745;50.828;4.378;2023-08-08T07:38:36;9.00;;;2.40;;
19221;SDS011;9745;50.828;4.378;2023-08-08T07:41:03;8.30;;;2.90;;
19221;SDS011;9745;50.828;4.378;2023-08-08T07:43:29;10.97;;;2.87;;
19221;SDS011;9745;50.828;4.378;2023-08-08T07:45:55;9.00;;;2.70;;
19221;SDS011;9745;50.828;4.378;2023-08-08T07:48:22;10.63;;;2.93;;
19221;SDS011;9745;50.828;4.378;2023-08-08T07:50:47;11.57;;;3.27;;
19221;SDS011;9745;50.828;4.378;2023-08-08T07:53:13;9.23;;;2.73;;
19221;SDS011;9745;50.828;4.378;2023-08-08T07:55:39;7.77;;;2.70;;
19221;SDS011;9745;50.828;4.378;2023-08-08T07:58:06;6.70;;;2.83;;
19221;SDS011;9745;50.828;4.378;2023-08-08T08:00:31;8.93;;;2.53;;
19221;SDS011;9745;50.828;4.378;2023-08-08T08:02:58;12.60;;;3.13;;
19221;SDS011;9745;50.828;4.378;2023-08-08T08:05:24;11.53;;;3.00;;
19221;SDS011;9745;50.828;4.378;2023-08-08T08:07:50;9.20;;;2.50;;
19221;SDS011;9745;50.828;4.378;2023-08-08T08:10:16;9.37;;;2.63;;
19221;SDS011;9745;50.828;4.378;2023-08-08T08:12:42;12.03;;;3.03;;
19221;SDS011;9745;50.828;4.378;2023-08-08T08:15:08;8.87;;;3.60;;
19221;SDS011;9745;50.828;4.378;2023-08-08T08:17:34;12.00;;;2.57;;
19221;SDS011;9745;50.828;4.378;2023-08-08T08:20:00;13.87;;;3.07;;
19221;SDS011;9745;50.828;4.378;2023-08-08T08:22:30;10.87;;;2.40;;
19221;SDS011;9745;50.828;4.378;2023-08-08T08:24:56;10.83;;;2.73;;
19221;SDS011;9745;50.828;4.378;2023-08-08T08:27:22;5.03;;;2.13;;
19221;SDS011;9745;50.828;4.378;2023-08-08T08:29:48;8.43;;;2.90;;
19221;SDS011;9745;50.828;4.378;2023-08-08T08:32:14;6.43;;;2.40;;
19221;SDS011;9745;50.828;4.378;2023-08-08T08:34:40;8.10;;;3.00;;
19221;SDS011;9745;50.828;4.378;2023-08-08T08:37:07;8.83;;;2.83;;
19221;SDS011;9745;50.828;4.378;2023-08-08T08:39:33;10.00;;;2.60;;
19221;SDS011;9745;50.828;4.378;2023-08-08T08:41:59;9.53;;;2.40;;
19221;SDS011;9745;50.828;4.378;2023-08-08T08:44:30;8.03;;;2.90;;
19221;SDS011;9745;50.828;4.378;2023-08-08T08:47:02;6.57;;;2.57;;
19221;SDS011;9745;50.828;4.378;2023-08-08T08:49:32;7.50;;;2.30;;
19221;SDS011;9745;50.828;4.378;2023-08-08T08:51:58;10.63;;;2.63;;
19221;SDS011;9745;50.828;4.378;2023-08-08T08:54:31;8.87;;;2.80;;
19221;SDS011;9745;50.828;4.378;2023-08-08T08:56:57;7.50;;;2.13;;
19221;SDS011;9745;50.828;4.378;2023-08-08T08:59:23;7.13;;;2.87;;
19221;SDS011;9745;50.828;4.378;2023-08-08T09:01:50;7.17;;;2.50;;
19221;SDS011;9745;50.828;4.378;2023-08-08T09:04:16;9.67;;;2.63;;
19221;SDS011;9745;50.828;4.378;2023-08-08T09:06:43;6.87;;;1.90;;
19221;SDS011;9745;50.828;4.378;2023-08-08T09:09:11;8.30;;;2.33;;
19221;SDS011;9745;50.828;4.378;2023-08-08T09:11:38;9.90;;;2.33;;
19221;SDS011;9745;50.828;4.378;2023-08-08T09:14:14;7.70;;;2.23;;
19221;SDS011;9745;50.828;4.378;2023-08-08T09:16:42;7.20;;;2.40;;
19221;SDS011;9745;50.828;4.378;2023-08-08T09:19:08;7.20;;;2.33;;
19221;SDS011;9745;50.828;4.378;2023-08-08T09:21:34;11.90;;;3.23;;
19221;SDS011;9745;50.828;4.378;2023-08-08T09:24:00;5.43;;;2.20;;
19221;SDS011;9745;50.828;4.378;2023-08-08T09:26:27;5.33;;;2.13;;
19221;SDS011;9745;50.828;4.378;2023-08-08T09:28:53;5.73;;;1.83;;
19221;SDS011;9745;50.828;4.378;2023-08-08T09:31:20;8.27;;;2.17;;
19221;SDS011;9745;50.828;4.378;2023-08-08T09:33:46;8.63;;;2.00;;
19221;SDS011;9745;50.828;4.378;2023-08-08T09:36:16;6.07;;;2.33;;
19221;SDS011;9745;50.828;4.378;2023-08-08T09:38:44;4.70;;;1.97;;
19221;SDS011;9745;50.828;4.378;2023-08-08T09:41:10;6.83;;;1.77;;
19221;SDS011;9745;50.828;4.378;2023-08-08T09:43:37;5.37;;;1.80;;
19221;SDS011;9745;50.828;4.378;2023-08-08T09:46:03;3.00;;;1.83;;
19221;SDS011;9745;50.828;4.378;2023-08-08T09:48:29;7.20;;;2.17;;
19221;SDS011;9745;50.828;4.378;2023-08-08T09:50:57;5.47;;;1.90;;
19221;SDS011;9745;50.828;4.378;2023-08-08T09:53:27;5.17;;;1.90;;
19221;SDS011;9745;50.828;4.378;2023-08-08T09:55:54;6.63;;;1.93;;
19221;SDS011;9745;50.828;4.378;2023-08-08T09:58:21;7.23;;;2.10;;
19221;SDS011;9745;50.828;4.378;2023-08-08T10:00:50;6.70;;;1.77;;
19221;SDS011;9745;50.828;4.378;2023-08-08T10:03:17;6.10;;;1.73;;
19221;SDS011;9745;50.828;4.378;2023-08-08T10:05:44;6.07;;;2.20;;
19221;SDS011;9745;50.828;4.378;2023-08-08T10:08:10;6.03;;;1.60;;
19221;SDS011;9745;50.828;4.378;2023-08-08T10:10:36;4.53;;;1.67;;
19221;SDS011;9745;50.828;4.378;2023-08-08T10:13:03;7.53;;;1.63;;
19221;SDS011;9745;50.828;4.378;2023-08-08T10:15:30;6.00;;;2.00;;
19221;SDS011;9745;50.828;4.378;2023-08-08T10:17:57;4.60;;;1.93;;
19221;SDS011;9745;50.828;4.378;2023-08-08T10:20:26;5.30;;;1.70;;
19221;SDS011;9745;50.828;4.378;2023-08-08T10:22:53;7.57;;;1.77;;
19221;SDS011;9745;50.828;4.378;2023-08-08T10:25:23;8.20;;;1.90;;
19221;SDS011;9745;50.828;4.378;2023-08-08T10:27:50;3.60;;;1.53;;
19221;SDS011;9745;50.828;4.378;2023-08-08T10:30:27;6.77;;;2.07;;
19221;SDS011;9745;50.828;4.378;2023-08-08T10:32:53;5.63;;;1.57;;
19221;SDS011;9745;50.828;4.378;2023-08-08T10:35:21;4.83;;;1.77;;
19221;SDS011;9745;50.828;4.378;2023-08-08T10:37:55;5.03;;;1.60;;
19221;SDS011;9745;50.828;4.378;2023-08-08T10:40:23;6.53;;;1.80;;
19221;SDS011;9745;50.828;4.378;2023-08-08T10:42:51;7.30;;;2.00;;
19221;SDS011;9745;50.828;4.378;2023-08-08T10:45:17;5.83;;;2.10;;
19221;SDS011;9745;50.828;4.378;2023-08-08T10:47:44;7.70;;;1.87;;
19221;SDS011;9745;50.828;4.378;2023-08-08T10:50:14;9.13;;;2.03;;
19221;SDS011;9745;50.828;4.378;2023-08-08T10:55:22;4.97;;;1.93;;
19221;SDS011;9745;50.828;4.378;2023-08-08T11:00:34;6.80;;;1.57;;
19221;SDS011;9745;50.828;4.378;2023-08-08T11:03:00;3.10;;;1.20;;
19221;SDS011;9745;50.828;4.378;2023-08-08T11:05:30;2.10;;;1.30;;
19221;SDS011;9745;50.828;4.378;2023-08-08T11:07:57;6.03;;;1.40;;
19221;SDS011;9745;50.828;4.378;2023-08-08T11:10:23;4.83;;;1.37;;
19221;SDS011;9745;50.828;4.378;2023-08-08T11:12:54;5.33;;;1.80;;
19221;SDS011;9745;50.828;4.378;2023-08-08T11:15:20;6.77;;;2.10;;
19221;SDS011;9745;50.828;4.378;2023-08-08T11:17:47;5.13;;;1.43;;
19221;SDS011;9745;50.828;4.378;2023-08-08T11:20:13;6.50;;;1.40;;
19221;SDS011;9745;50.828;4.378;2023-08-08T11:22:39;2.40;;;1.20;;
19221;SDS011;9745;50.828;4.378;2023-08-08T11:25:05;5.37;;;1.37;;
19221;SDS011;9745;50.828;4.378;2023-08-08T11:27:32;4.23;;;1.17;;
19221;SDS011;9745;50.828;4.378;2023-08-08T11:29:59;3.83;;;1.13;;
19221;SDS011;9745;50.828;4.378;2023-08-08T11:32:27;3.73;;;1.13;;
19221;SDS011;9745;50.828;4.378;2023-08-08T11:34:57;4.90;;;1.20;;
19221;SDS011;9745;50.828;4.378;2023-08-08T11:37:23;2.97;;;1.10;;
19221;SDS011;9745;50.828;4.378;2023-08-08T11:39:49;2.83;;;1.57;;
19221;SDS011;9745;50.828;4.378;2023-08-08T11:42:15;4.33;;;1.43;;
19221;SDS011;9745;50.828;4.378;2023-08-08T11:44:41;4.27;;;1.90;;
19221;SDS011;9745;50.828;4.378;2023-08-08T11:47:07;6.70;;;1.40;;
19221;SDS011;9745;50.828;4.378;2023-08-08T11:49:40;4.17;;;1.60;;
19221;SDS011;9745;50.828;4.378;2023-08-08T11:52:07;3.43;;;1.50;;
19221;SDS011;9745;50.828;4.378;2023-08-08T11:54:33;4.93;;;1.70;;
19221;SDS011;9745;50.828;4.378;2023-08-08T11:57:00;5.10;;;1.47;;
19221;SDS011;9745;50.828;4.378;2023-08-08T11:59:26;5.90;;;1.40;;
19221;SDS011;9745;50.828;4.378;2023-08-08T12:01:52;4.93;;;1.60;;
19221;SDS011;9745;50.828;4.378;2023-08-08T12:04:19;7.73;;;1.67;;
19221;SDS011;9745;50.828;4.378;2023-08-08T12:06:46;3.17;;;1.40;;
19221;SDS011;9745;50.828;4.378;2023-08-08T12:09:12;3.63;;;1.40;;
19221;SDS011;9745;50.828;4.378;2023-08-08T12:11:38;3.37;;;1.43;;
19221;SDS011;9745;50.828;4.378;2023-08-08T12:14:07;2.57;;;1.60;;
19221;SDS011;9745;50.828;4.378;2023-08-08T12:16:38;4.40;;;1.30;;
19221;SDS011;9745;50.828;4.378;2023-08-08T12:19:06;4.20;;;1.47;;
19221;SDS011;9745;50.828;4.378;2023-08-08T12:21:34;4.47;;;1.33;;
19221;SDS011;9745;50.828;4.378;2023-08-08T12:24:00;3.33;;;1.80;;
19221;SDS011;9745;50.828;4.378;2023-08-08T12:26:27;4.30;;;1.37;;
19221;SDS011;9745;50.828;4.378;2023-08-08T12:28:53;3.03;;;1.47;;
19221;SDS011;9745;50.828;4.378;2023-08-08T12:31:20;2.23;;;1.40;;
19221;SDS011;9745;50.828;4.378;2023-08-08T12:33:45;5.93;;;1.50;;
19221;SDS011;9745;50.828;4.378;2023-08-08T12:36:13;4.60;;;1.87;;
19221;SDS011;9745;50.828;4.378;2023-08-08T12:38:39;5.47;;;1.17;;
19221;SDS011;9745;50.828;4.378;2023-08-08T12:41:05;2.73;;;1.30;;
19221;SDS011;9745;50.828;4.378;2023-08-08T12:43:32;3.00;;;1.37;;
19221;SDS011;9745;50.828;4.378;2023-08-08T12:45:59;3.87;;;1.60;;
19221;SDS011;9745;50.828;4.378;2023-08-08T12:48:25;3.20;;;1.10;;
19221;SDS011;9745;50.828;4.378;2023-08-08T12:50:51;4.70;;;1.30;;
19221;SDS011;9745;50.828;4.378;2023-08-08T12:53:17;5.00;;;1.40;;
19221;SDS011;9745;50.828;4.378;2023-08-08T12:55:44;3.80;;;1.50;;
19221;SDS011;9745;50.828;4.378;2023-08-08T12:58:09;1.80;;;1.00;;
19221;SDS011;9745;50.828;4.378;2023-08-08T13:00:36;7.53;;;1.50;;
19221;SDS011;9745;50.828;4.378;2023-08-08T13:03:02;5.70;;;1.60;;
19221;SDS011;9745;50.828;4.378;2023-08-08T13:05:28;3.33;;;1.47;;
19221;SDS011;9745;50.828;4.378;2023-08-08T13:07:54;4.90;;;1.47;;
19221;SDS011;9745;50.828;4.378;2023-08-08T13:10:20;3.93;;;1.17;;
19221;SDS011;9745;50.828;4.378;2023-08-08T13:12:47;2.80;;;1.23;;
19221;SDS011;9745;50.828;4.378;2023-08-08T13:15:13;3.57;;;1.30;;
19221;SDS011;9745;50.828;4.378;2023-08-08T13:17:39;5.73;;;1.50;;
19221;SDS011;9745;50.828;4.378;2023-08-08T13:20:05;5.17;;;1.50;;
19221;SDS011;9745;50.828;4.378;2023-08-08T13:22:32;3.93;;;1.40;;
19221;SDS011;9745;50.828;4.378;2023-08-08T13:24:58;5.37;;;1.57;;
19221;SDS011;9745;50.828;4.378;2023-08-08T13:27:24;4.20;;;1.47;;
19221;SDS011;9745;50.828;4.378;2023-08-08T13:29:50;7.20;;;1.20;;
19221;SDS011;9745;50.828;4.378;2023-08-08T13:32:16;4.93;;;1.30;;
19221;SDS011;9745;50.828;4.378;2023-08-08T13:34:43;5.07;;;1.73;;
19221;SDS011;9745;50.828;4.378;2023-08-08T13:37:09;2.33;;;1.80;;
19221;SDS011;9745;50.828;4.378;2023-08-08T13:39:35;3.53;;;1.53;;
19221;SDS011;9745;50.828;4.378;2023-08-08T13:42:01;2.60;;;1.30;;
19221;SDS011;9745;50.828;4.378;2023-08-08T13:44:28;2.27;;;1.00;;
19221;SDS011;9745;50.828;4.378;2023-08-08T13:46:54;2.40;;;1.20;;
19221;SDS011;9745;50.828;4.378;2023-08-08T13:49:20;1.87;;;1.00;;
19221;SDS011;9745;50.828;4.378;2023-08-08T13:51:51;3.40;;;1.13;;
19221;SDS011;9745;50.828;4.378;2023-08-08T13:54:17;3.53;;;1.50;;
19221;SDS011;9745;50.828;4.378;2023-08-08T13:56:43;6.13;;;1.57;;
19221;SDS011;9745;50.828;4.378;2023-08-08T13:59:09;2.27;;;1.20;;
19221;SDS011;9745;50.828;4.378;2023-08-08T14:01:35;3.50;;;1.30;;
19221;SDS011;9745;50.828;4.378;2023-08-08T14:04:01;6.77;;;1.23;;
19221;SDS011;9745;50.828;4.378;2023-08-08T14:06:27;3.03;;;0.90;;
19221;SDS011;9745;50.828;4.378;2023-08-08T14:08:54;2.70;;;1.00;;
19221;SDS011;9745;50.828;4.378;2023-08-08T14:11:20;1.60;;;0.90;;
19221;SDS011;9745;50.828;4.378;2023-08-08T14:13:46;1.70;;;0.97;;
19221;SDS011;9745;50.828;4.378;2023-08-08T14:16:12;1.23;;;0.90;;
19221;SDS011;9745;50.828;4.378;2023-08-08T14:18:38;2.30;;;1.10;;
19221;SDS011;9745;50.828;4.378;2023-08-08T14:21:04;5.27;;;1.40;;
19221;SDS011;9745;50.828;4.378;2023-08-08T14:23:30;3.40;;;1.17;;
19221;SDS011;9745;50.828;4.378;2023-08-08T14:25:56;3.47;;;1.10;;
19221;SDS011;9745;50.828;4.378;2023-08-08T14:28:22;1.63;;;1.00;;
19221;SDS011;9745;50.828;4.378;2023-08-08T14:30:48;3.17;;;1.10;;
19221;SDS011;9745;50.828;4.378;2023-08-08T14:33:14;4.00;;;1.00;;
19221;SDS011;9745;50.828;4.378;2023-08-08T14:35:41;1.40;;;0.80;;
19221;SDS011;9745;50.828;4.378;2023-08-08T14:38:06;1.90;;;1.07;;
19221;SDS011;9745;50.828;4.378;2023-08-08T14:40:33;4.70;;;1.30;;
19221;SDS011;9745;50.828;4.378;2023-08-08T14:43:00;3.53;;;1.10;;
19221;SDS011;9745;50.828;4.378;2023-08-08T14:45:26;4.50;;;1.03;;
19221;SDS011;9745;50.828;4.378;2023-08-08T14:47:52;1.83;;;1.00;;
19221;SDS011;9745;50.828;4.378;2023-08-08T14:50:18;3.53;;;1.10;;
19221;SDS011;9745;50.828;4.378;2023-08-08T14:52:44;3.53;;;1.10;;
19221;SDS011;9745;50.828;4.378;2023-08-08T14:55:10;3.73;;;1.40;;
19221;SDS011;9745;50.828;4.378;2023-08-08T14:57:36;2.33;;;1.00;;